Time;durP1;ratioP1;P1;durP2;ratioP2;P2;SDS_P1;SDS_P2;PMS_P1;PMS_P2;Temp;Humidity;BMP_temperature;BMP_pressure;BME280_temperature;BME280_humidity;BME280_pressure;Samples;Min_cycle;Max_cycle;Signal;HPM_P1;HPM_P2
2022/08/31 00:05:21;;;;;;;3.50;1.50;;;21.10;74.00;;;;;;5079599;28;20457;-77
2022/08/31 00:07:47;;;;;;;2.10;1.17;;;21.10;74.00;;;;;;5060764;28;20020;-79
2022/08/31 00:10:13;;;;;;;2.33;1.40;;;21.10;74.00;;;;;;5058034;28;20044;-79
2022/08/31 00:12:43;;;;;;;2.22;1.45;;;21.10;74.10;;;;;;5077722;28;20035;-78
2022/08/31 00:15:12;;;;;;;2.92;1.40;;;21.10;74.00;;;;;;5058764;28;20031;-79
2022/08/31 00:17:37;;;;;;;2.53;1.20;;;21.10;74.00;;;;;;5076742;28;20070;-79
2022/08/31 00:20:04;;;;;;;4.22;1.25;;;21.10;74.00;;;;;;5058791;28;20028;-79
2022/08/31 00:22:30;;;;;;;2.35;1.30;;;21.10;74.00;;;;;;5057173;28;20033;-78
2022/08/31 00:24:56;;;;;;;2.33;1.15;;;21.10;74.00;;;;;;5072031;28;20059;-79
2022/08/31 00:27:21;;;;;;;2.63;1.17;;;21.10;73.90;;;;;;5067792;28;20074;-79
2022/08/31 00:29:47;;;;;;;2.10;1.23;;;21.10;73.90;;;;;;5051440;28;20027;-77
2022/08/31 00:32:12;;;;;;;2.40;1.20;;;21.20;73.90;;;;;;5077105;28;20029;-78
2022/08/31 00:34:38;;;;;;;1.98;1.30;;;21.20;73.90;;;;;;5058198;28;20077;-78
2022/08/31 00:37:04;;;;;;;3.95;1.45;;;21.20;73.90;;;;;;5059336;28;20111;-78
2022/08/31 00:39:29;;;;;;;3.28;1.40;;;21.10;73.90;;;;;;5073521;28;20507;-77
2022/08/31 00:41:55;;;;;;;1.60;1.25;;;21.10;73.90;;;;;;5057092;28;20185;-77
2022/08/31 00:44:21;;;;;;;2.60;1.35;;;21.10;73.90;;;;;;5057144;28;20028;-77
2022/08/31 00:46:46;;;;;;;2.45;1.40;;;21.10;74.00;;;;;;5049954;28;20017;-79
2022/08/31 00:49:28;;;;;;;2.80;1.30;;;21.10;74.00;;;;;;5046170;28;20028;-78
2022/08/31 00:52:25;;;;;;;3.05;1.30;;;21.10;74.00;;;;;;5059017;28;20025;-78
2022/08/31 00:55:00;;;;;;;1.88;1.20;;;21.10;74.00;;;;;;5044045;28;20028;-77
2022/08/31 00:57:30;;;;;;;1.45;1.10;;;21.10;74.10;;;;;;5055990;28;20021;-78
2022/08/31 00:59:57;;;;;;;2.03;1.23;;;21.10;74.10;;;;;;5055970;28;20116;-78
2022/08/31 01:02:22;;;;;;;2.72;1.30;;;21.10;74.10;;;;;;5046946;28;20028;-78
2022/08/31 01:04:48;;;;;;;2.13;1.17;;;21.00;74.00;;;;;;5069211;28;20025;-78
2022/08/31 01:07:13;;;;;;;2.08;1.10;;;21.00;74.00;;;;;;5050247;28;20032;-78
2022/08/31 01:09:42;;;;;;;1.95;1.10;;;21.00;74.00;;;;;;5044120;28;20075;-78
2022/08/31 01:12:09;;;;;;;2.10;1.20;;;21.10;74.00;;;;;;5068006;28;20032;-78
2022/08/31 01:14:37;;;;;;;3.22;1.30;;;21.10;74.00;;;;;;5043177;28;20029;-78
2022/08/31 01:17:03;;;;;;;1.70;1.30;;;21.10;74.00;;;;;;5060736;28;20053;-78
2022/08/31 01:19:31;;;;;;;2.92;1.00;;;21.10;73.90;;;;;;5048061;28;20032;-78
2022/08/31 01:22:21;;;;;;;2.58;1.20;;;21.10;73.90;;;;;;5056489;28;20479;-78
2022/08/31 01:24:49;;;;;;;1.92;1.30;;;21.10;74.00;;;;;;5038326;28;20104;-77
2022/08/31 01:27:20;;;;;;;2.83;1.30;;;21.10;74.00;;;;;;5053774;28;20024;-77
2022/08/31 01:29:46;;;;;;;2.10;1.30;;;21.10;74.00;;;;;;5073381;28;20437;-77
2022/08/31 01:32:11;;;;;;;2.75;1.40;;;21.10;74.00;;;;;;5070974;28;20032;-78
2022/08/31 01:34:37;;;;;;;2.00;1.30;;;21.10;74.10;;;;;;5042062;28;20040;-79
2022/08/31 01:37:03;;;;;;;2.47;1.25;;;21.10;74.10;;;;;;5035446;28;20025;-77
2022/08/31 01:39:28;;;;;;;2.17;1.30;;;21.10;74.60;;;;;;5049239;28;20024;-77
2022/08/31 01:41:53;;;;;;;1.88;1.15;;;21.00;74.10;;;;;;5044171;28;20025;-78
2022/08/31 01:44:22;;;;;;;2.63;1.27;;;21.00;74.10;;;;;;5040187;28;20025;-77
2022/08/31 01:46:48;;;;;;;1.45;1.10;;;21.00;74.10;;;;;;5052498;28;20020;-77
2022/08/31 01:49:15;;;;;;;2.03;1.20;;;21.00;74.10;;;;;;5059445;28;20124;-78
2022/08/31 01:51:41;;;;;;;2.22;1.20;;;21.00;74.10;;;;;;5058781;28;20052;-77
2022/08/31 01:54:07;;;;;;;2.15;1.10;;;21.00;74.10;;;;;;5048171;28;20115;-77
2022/08/31 01:56:36;;;;;;;2.72;1.17;;;21.00;74.20;;;;;;5045906;28;20048;-77
2022/08/31 01:59:04;;;;;;;2.15;1.20;;;21.00;74.10;;;;;;5041926;28;20033;-79
2022/08/31 02:01:32;;;;;;;1.42;1.00;;;21.00;74.10;;;;;;5049930;28;20024;-80
2022/08/31 02:03:58;;;;;;;1.65;1.00;;;21.10;74.10;;;;;;5058306;28;20020;-80
2022/08/31 02:06:24;;;;;;;4.47;1.00;;;21.10;74.00;;;;;;5066602;28;20074;-80
2022/08/31 02:08:49;;;;;;;2.42;1.10;;;21.10;74.00;;;;;;5055416;28;20025;-79
2022/08/31 02:11:15;;;;;;;1.83;1.20;;;21.10;74.00;;;;;;5063927;28;20391;-80
2022/08/31 02:13:40;;;;;;;1.42;1.02;;;21.10;74.00;;;;;;5065400;28;20549;-78
2022/08/31 02:16:06;;;;;;;2.17;1.15;;;21.10;74.00;;;;;;5063158;28;20028;-78
2022/08/31 02:18:34;;;;;;;1.40;1.00;;;21.10;74.00;;;;;;5069813;28;20029;-80
2022/08/31 02:20:59;;;;;;;1.58;1.10;;;21.10;74.00;;;;;;5062664;28;20029;-80
2022/08/31 02:23:25;;;;;;;1.55;1.00;;;21.00;74.00;;;;;;5046056;28;20039;-80
2022/08/31 02:25:50;;;;;;;1.80;1.20;;;21.00;74.00;;;;;;5050234;28;20051;-79
2022/08/31 02:28:17;;;;;;;1.42;1.13;;;21.00;74.10;;;;;;5063950;28;20458;-78
2022/08/31 02:30:43;;;;;;;1.77;1.00;;;21.00;74.10;;;;;;5065209;28;20025;-78
2022/08/31 02:33:09;;;;;;;1.90;1.10;;;21.00;74.10;;;;;;5064841;28;20394;-78
2022/08/31 02:35:37;;;;;;;1.63;1.13;;;21.00;74.10;;;;;;5064235;28;20032;-78
2022/08/31 02:38:03;;;;;;;1.40;1.05;;;21.00;74.10;;;;;;5063997;28;20533;-78
2022/08/31 02:40:28;;;;;;;2.10;1.15;;;21.00;74.10;;;;;;5048054;28;20025;-78
2022/08/31 02:42:54;;;;;;;2.65;1.10;;;20.90;74.10;;;;;;5058631;28;20032;-79
2022/08/31 02:45:20;;;;;;;1.75;1.10;;;21.00;74.10;;;;;;5062387;28;20025;-78
2022/08/31 02:47:45;;;;;;;1.52;1.00;;;21.00;74.10;;;;;;5074556;28;20017;-79
2022/08/31 02:50:11;;;;;;;2.15;1.00;;;21.00;74.10;;;;;;5042958;28;20021;-80
2022/08/31 02:52:36;;;;;;;2.83;1.10;;;21.00;74.10;;;;;;5052687;28;20025;-78
2022/08/31 02:55:03;;;;;;;1.30;0.90;;;21.00;74.00;;;;;;5058305;28;20092;-77
2022/08/31 02:57:28;;;;;;;1.63;1.00;;;21.00;74.00;;;;;;5057342;28;20035;-78
2022/08/31 02:59:54;;;;;;;1.55;1.05;;;21.00;74.00;;;;;;5040804;28;20462;-78
2022/08/31 03:02:21;;;;;;;1.88;0.95;;;21.00;74.00;;;;;;5042604;28;20029;-78
2022/08/31 03:04:47;;;;;;;2.60;1.00;;;21.00;74.00;;;;;;5059073;28;20081;-77
2022/08/31 03:07:12;;;;;;;2.53;1.10;;;21.00;74.00;;;;;;5040560;28;20032;-77
2022/08/31 03:09:38;;;;;;;1.58;1.05;;;21.00;74.00;;;;;;5056729;28;20070;-77
2022/08/31 03:12:04;;;;;;;2.97;1.00;;;20.90;74.00;;;;;;5046929;28;20028;-78
2022/08/31 03:14:29;;;;;;;2.38;0.98;;;21.00;74.10;;;;;;5058026;28;20212;-78
2022/08/31 03:16:55;;;;;;;1.67;1.02;;;21.00;74.10;;;;;;5057752;28;20538;-78
2022/08/31 03:19:20;;;;;;;2.47;1.10;;;21.00;74.10;;;;;;5058167;28;20025;-77
2022/08/31 03:21:46;;;;;;;2.17;0.80;;;21.00;74.10;;;;;;5057972;28;20111;-77
2022/08/31 03:24:16;;;;;;;1.23;0.85;;;21.00;74.10;;;;;;5057708;28;20513;-79
2022/08/31 03:26:43;;;;;;;1.07;0.80;;;21.00;74.10;;;;;;5036611;28;20022;-77
2022/08/31 03:29:08;;;;;;;1.77;1.05;;;21.00;74.10;;;;;;5034800;28;20261;-77
2022/08/31 03:31:34;;;;;;;1.80;0.93;;;20.90;74.10;;;;;;5049913;28;20021;-77
2022/08/31 03:33:59;;;;;;;1.95;0.90;;;21.00;74.10;;;;;;5055261;28;20037;-77
2022/08/31 03:36:25;;;;;;;1.35;0.80;;;21.00;74.10;;;;;;5046924;28;20116;-77
2022/08/31 03:38:51;;;;;;;1.48;0.82;;;21.00;74.10;;;;;;5070542;28;20484;-77
2022/08/31 03:41:22;;;;;;;2.08;1.13;;;21.00;74.10;;;;;;5053385;28;20032;-77
2022/08/31 03:43:47;;;;;;;1.20;0.88;;;21.00;74.10;;;;;;5072021;28;20509;-78
2022/08/31 03:46:13;;;;;;;1.77;1.00;;;21.00;74.00;;;;;;5050789;28;20033;-78
2022/08/31 03:48:38;;;;;;;1.35;1.00;;;21.00;74.00;;;;;;5044635;28;20024;-78
2022/08/31 03:51:04;;;;;;;1.63;1.00;;;21.00;74.00;;;;;;5036762;28;20595;-77
2022/08/31 03:53:30;;;;;;;1.85;1.00;;;21.00;74.00;;;;;;5038959;28;20558;-78
2022/08/31 03:56:00;;;;;;;1.58;0.82;;;20.90;74.00;;;;;;5044276;28;20040;-77
2022/08/31 03:58:27;;;;;;;1.52;1.02;;;21.00;74.00;;;;;;5038214;28;20586;-78
2022/08/31 04:00:53;;;;;;;0.93;0.70;;;20.90;74.00;;;;;;5037626;28;20029;-77
2022/08/31 04:03:18;;;;;;;1.08;0.80;;;21.00;74.00;;;;;;5035892;28;20399;-77
2022/08/31 04:05:44;;;;;;;1.73;1.05;;;20.90;74.10;;;;;;5032845;28;20475;-77
2022/08/31 04:08:10;;;;;;;1.70;1.00;;;20.90;74.10;;;;;;5024372;28;20827;-77
2022/08/31 04:10:39;;;;;;;1.38;0.77;;;20.90;74.00;;;;;;5033159;28;20029;-77
2022/08/31 04:13:05;;;;;;;2.85;1.23;;;20.90;74.10;;;;;;5032080;28;20029;-78
2022/08/31 04:15:30;;;;;;;0.98;0.80;;;20.90;74.10;;;;;;5031826;28;20400;-78
2022/08/31 04:17:55;;;;;;;2.15;0.80;;;20.90;74.10;;;;;;5032403;28;20535;-78
2022/08/31 04:20:21;;;;;;;2.08;0.90;;;20.90;74.10;;;;;;5031949;28;20065;-77
2022/08/31 04:22:46;;;;;;;0.90;0.70;;;20.90;74.10;;;;;;5033772;28;20021;-79
2022/08/31 04:25:12;;;;;;;2.47;0.95;;;20.90;74.00;;;;;;5037602;28;20090;-80
2022/08/31 04:27:37;;;;;;;1.85;0.90;;;20.90;74.10;;;;;;5054492;28;20029;-79
2022/08/31 04:30:06;;;;;;;1.95;0.90;;;21.00;74.10;;;;;;5053226;28;20032;-79
2022/08/31 04:32:32;;;;;;;0.88;0.70;;;21.00;74.10;;;;;;5034942;28;20055;-79
2022/08/31 04:34:58;;;;;;;1.67;0.75;;;21.00;74.10;;;;;;5034965;28;20060;-77
2022/08/31 04:37:23;;;;;;;2.42;1.25;;;21.00;74.10;;;;;;5035107;28;20107;-80
2022/08/31 04:39:49;;;;;;;2.08;1.00;;;20.90;74.00;;;;;;5052636;28;20041;-79
2022/08/31 04:42:15;;;;;;;2.25;0.93;;;21.00;74.10;;;;;;5033201;28;20033;-78
2022/08/31 04:44:40;;;;;;;2.38;1.10;;;20.90;74.00;;;;;;5032852;28;20040;-79
2022/08/31 04:47:07;;;;;;;1.27;0.80;;;20.90;74.00;;;;;;5051515;28;20021;-78
2022/08/31 04:49:32;;;;;;;1.55;0.90;;;21.00;74.10;;;;;;5031945;28;20658;-78
2022/08/31 04:51:58;;;;;;;1.65;0.90;;;20.90;74.00;;;;;;5050074;28;20164;-79
2022/08/31 04:54:23;;;;;;;4.05;1.27;;;20.90;74.10;;;;;;5072428;28;20058;-78
2022/08/31 04:56:49;;;;;;;6.15;1.52;;;20.90;74.20;;;;;;5038913;28;20044;-77
2022/08/31 04:59:16;;;;;;;2.50;1.00;;;20.90;74.50;;;;;;5034794;28;20067;-77
2022/08/31 05:01:44;;;;;;;6.35;1.05;;;20.90;74.20;;;;;;5033386;28;20021;-77
2022/08/31 05:04:12;;;;;;;6.05;1.50;;;20.90;74.30;;;;;;5033284;28;20044;-77
2022/08/31 05:06:40;;;;;;;6.85;1.15;;;20.90;74.00;;;;;;5033090;28;20025;-77
2022/08/31 05:09:08;;;;;;;5.50;1.30;;;20.90;73.70;;;;;;5033331;28;20590;-78
2022/08/31 05:11:34;;;;;;;4.70;1.30;;;21.00;73.70;;;;;;5033384;28;20029;-80
2022/08/31 05:14:02;;;;;;;4.28;1.15;;;21.00;73.70;;;;;;5033704;28;20726;-76
2022/08/31 05:16:32;;;;;;;6.47;1.20;;;21.00;73.60;;;;;;5032276;28;20029;-77
2022/08/31 05:18:58;;;;;;;4.80;1.20;;;21.10;73.50;;;;;;5032255;28;20033;-76
2022/08/31 05:21:28;;;;;;;4.28;1.20;;;21.20;73.50;;;;;;5031651;28;20033;-77
2022/08/31 05:24:08;;;;;;;3.03;1.13;;;21.30;73.30;;;;;;5031918;28;20060;-77
2022/08/31 05:26:39;;;;;;;5.30;1.20;;;21.40;73.10;;;;;;5049872;28;20059;-77
2022/08/31 05:29:06;;;;;;;3.90;1.27;;;21.40;73.10;;;;;;5034728;28;20523;-77
2022/08/31 05:31:33;;;;;;;4.13;1.13;;;21.40;73.20;;;;;;5052401;28;20033;-76
2022/08/31 05:33:59;;;;;;;5.45;1.17;;;21.50;73.20;;;;;;5031777;28;20057;-77
2022/08/31 05:36:25;;;;;;;4.43;1.20;;;21.60;72.90;;;;;;5049176;28;20044;-77
2022/08/31 05:38:54;;;;;;;3.72;1.10;;;21.70;72.60;;;;;;5076542;28;20049;-77
2022/08/31 05:41:21;;;;;;;6.70;1.02;;;21.80;72.40;;;;;;5047925;28;20981;-77
2022/08/31 05:43:46;;;;;;;4.03;1.00;;;21.80;72.20;;;;;;5035191;28;20526;-77
2022/08/31 05:46:14;;;;;;;5.55;1.20;;;21.90;71.90;;;;;;5053249;28;20053;-77
2022/08/31 05:48:40;;;;;;;7.78;1.20;;;21.90;71.90;;;;;;5061283;28;20013;-77
2022/08/31 05:51:09;;;;;;;5.90;1.17;;;21.80;71.90;;;;;;5052188;28;20039;-77
2022/08/31 05:53:35;;;;;;;2.78;0.90;;;21.80;72.10;;;;;;5074069;28;20025;-78
2022/08/31 05:56:06;;;;;;;4.22;1.10;;;21.80;72.30;;;;;;5056984;28;20032;-78
2022/08/31 05:58:32;;;;;;;2.90;1.15;;;21.70;72.40;;;;;;5075000;28;20033;-77
2022/08/31 06:00:58;;;;;;;3.72;0.90;;;21.70;72.50;;;;;;5074643;28;20024;-77
2022/08/31 06:03:24;;;;;;;7.00;1.33;;;21.80;72.30;;;;;;5057550;28;20035;-77
2022/08/31 06:05:51;;;;;;;5.20;1.27;;;21.80;72.30;;;;;;5057087;28;20032;-77
2022/08/31 06:08:17;;;;;;;3.35;1.00;;;21.80;72.40;;;;;;5057635;28;20021;-78
2022/08/31 06:10:43;;;;;;;3.00;0.90;;;21.70;72.30;;;;;;5057267;28;20059;-77
2022/08/31 06:13:12;;;;;;;4.20;1.00;;;21.70;72.50;;;;;;5075016;28;20487;-78
2022/08/31 06:15:39;;;;;;;3.63;1.00;;;21.70;72.60;;;;;;5057040;28;20080;-78
2022/08/31 06:18:04;;;;;;;5.50;0.90;;;21.60;72.80;;;;;;5056137;28;20025;-78
2022/08/31 06:20:30;;;;;;;4.50;1.23;;;21.60;72.90;;;;;;5056702;28;20033;-77
2022/08/31 06:22:56;;;;;;;3.53;1.17;;;21.60;73.00;;;;;;5056660;28;20036;-77
2022/08/31 06:25:22;;;;;;;2.25;0.80;;;21.50;73.10;;;;;;5056232;28;20025;-77
2022/08/31 06:27:50;;;;;;;2.72;0.90;;;21.50;73.20;;;;;;5060142;28;20021;-78
2022/08/31 06:30:18;;;;;;;4.97;0.88;;;21.40;73.30;;;;;;5077500;28;20052;-77
2022/08/31 06:32:46;;;;;;;3.92;1.10;;;21.40;73.40;;;;;;5060236;28;20052;-77
2022/08/31 06:35:13;;;;;;;3.38;0.95;;;21.50;73.60;;;;;;5078145;28;20036;-78
2022/08/31 06:37:38;;;;;;;1.45;0.90;;;21.40;73.60;;;;;;5078419;28;20042;-77
2022/08/31 06:40:04;;;;;;;5.50;1.20;;;21.40;73.70;;;;;;5059715;28;20538;-77
2022/08/31 06:42:30;;;;;;;5.00;1.10;;;21.40;73.80;;;;;;5059485;28;20394;-77
2022/08/31 06:44:55;;;;;;;1.52;0.75;;;21.40;73.90;;;;;;5048385;28;20115;-77
2022/08/31 06:47:21;;;;;;;2.47;0.82;;;21.40;73.90;;;;;;5044286;28;20020;-79
2022/08/31 06:49:46;;;;;;;5.13;1.10;;;21.40;73.90;;;;;;5058474;28;20013;-79
2022/08/31 06:52:13;;;;;;;2.22;0.93;;;21.40;74.40;;;;;;5067978;28;20024;-79
2022/08/31 06:54:39;;;;;;;2.10;0.90;;;21.40;73.80;;;;;;5084361;28;20099;-79
2022/08/31 06:57:05;;;;;;;2.28;0.90;;;21.50;73.70;;;;;;5067845;28;20459;-79
2022/08/31 06:59:32;;;;;;;3.33;1.00;;;21.40;73.70;;;;;;5068797;28;20017;-79
2022/08/31 07:01:59;;;;;;;2.22;1.02;;;21.40;73.70;;;;;;5084588;28;20456;-79
2022/08/31 07:04:25;;;;;;;2.95;1.10;;;21.40;73.70;;;;;;5066473;28;20016;-78
2022/08/31 07:06:51;;;;;;;2.08;0.80;;;21.40;73.70;;;;;;5066739;28;20033;-79
2022/08/31 07:09:17;;;;;;;1.73;0.80;;;21.40;73.80;;;;;;5066280;28;20020;-79
2022/08/31 07:11:45;;;;;;;1.80;0.80;;;21.40;73.90;;;;;;5064482;28;20509;-78
2022/08/31 07:14:14;;;;;;;2.63;0.90;;;21.40;73.90;;;;;;5063941;28;20047;-78
2022/08/31 07:16:41;;;;;;;1.60;0.70;;;21.40;74.00;;;;;;5077889;28;20514;-78
2022/08/31 07:19:07;;;;;;;2.72;0.90;;;21.30;74.00;;;;;;5047805;28;20079;-78
2022/08/31 07:21:42;;;;;;;2.47;0.93;;;21.40;74.10;;;;;;5057562;28;20017;-77
2022/08/31 07:24:09;;;;;;;2.30;1.00;;;21.30;74.00;;;;;;5052479;28;20179;-79
2022/08/31 07:26:38;;;;;;;1.30;0.90;;;21.30;74.10;;;;;;5063140;28;20088;-79
2022/08/31 07:29:06;;;;;;;2.90;0.80;;;21.40;74.10;;;;;;5063741;28;20021;-78
2022/08/31 07:31:39;;;;;;;2.15;1.02;;;21.40;74.00;;;;;;5062719;28;20395;-79
2022/08/31 07:34:06;;;;;;;2.17;0.88;;;21.40;74.00;;;;;;5040898;28;20481;-78
2022/08/31 07:36:33;;;;;;;1.73;0.90;;;21.40;73.80;;;;;;5039720;28;20033;-78
2022/08/31 07:44:26;;;;;;;1.30;0.70;;;21.50;73.60;;;;;;5035795;28;20424;-78
2022/08/31 07:46:53;;;;;;;2.88;0.70;;;21.50;73.80;;;;;;5035245;28;20022;-77
2022/08/31 07:49:20;;;;;;;2.40;0.80;;;21.40;73.60;;;;;;5018129;28;20049;-78
2022/08/31 07:51:50;;;;;;;1.75;0.60;;;21.40;73.70;;;;;;5035595;28;20144;-77
2022/08/31 07:54:22;;;;;;;2.50;0.80;;;21.40;73.80;;;;;;5035264;28;20021;-77
2022/08/31 07:56:52;;;;;;;1.83;0.73;;;21.40;73.80;;;;;;5017335;28;20075;-77
2022/08/31 07:59:19;;;;;;;2.35;0.80;;;21.40;73.90;;;;;;5016844;28;20090;-77
2022/08/31 08:01:46;;;;;;;2.47;1.08;;;21.40;73.90;;;;;;5017079;28;20551;-78
2022/08/31 08:04:14;;;;;;;1.75;0.80;;;21.30;74.00;;;;;;5017337;28;20037;-77
2022/08/31 08:06:39;;;;;;;1.92;0.70;;;21.30;74.00;;;;;;5016847;28;20512;-77
2022/08/31 08:09:06;;;;;;;2.15;0.80;;;21.30;74.10;;;;;;5035144;28;20022;-77
2022/08/31 08:11:37;;;;;;;1.33;0.63;;;21.30;74.20;;;;;;5034341;28;20022;-77
2022/08/31 08:14:05;;;;;;;1.40;0.80;;;21.30;74.30;;;;;;5017039;28;20397;-78
2022/08/31 08:16:31;;;;;;;2.58;0.95;;;21.30;74.30;;;;;;5034268;28;20052;-77
2022/08/31 08:18:57;;;;;;;2.00;0.90;;;21.30;74.40;;;;;;5061203;28;20037;-77
2022/08/31 08:21:22;;;;;;;1.25;0.77;;;21.30;74.30;;;;;;5074512;28;20063;-77
2022/08/31 08:23:48;;;;;;;2.67;0.90;;;21.30;74.40;;;;;;5056975;28;20028;-79
2022/08/31 08:26:13;;;;;;;2.13;0.68;;;21.30;74.30;;;;;;5073412;28;20021;-77
2022/08/31 08:28:39;;;;;;;3.03;1.20;;;21.30;74.30;;;;;;5055443;28;20022;-77
2022/08/31 08:31:09;;;;;;;1.55;0.90;;;21.30;74.20;;;;;;5036359;28;20021;-77
2022/08/31 08:33:35;;;;;;;1.70;0.70;;;21.30;74.20;;;;;;5038062;28;20031;-78
2022/08/31 08:36:05;;;;;;;0.88;0.60;;;21.30;74.20;;;;;;5037622;28;20435;-77
2022/08/31 08:38:30;;;;;;;2.42;0.82;;;21.30;74.30;;;;;;5065358;28;20107;-78
2022/08/31 08:40:58;;;;;;;1.65;0.70;;;21.30;74.30;;;;;;5075956;28;20117;-77
2022/08/31 08:43:32;;;;;;;3.53;0.80;;;21.30;74.40;;;;;;5040518;28;20031;-77
2022/08/31 08:46:01;;;;;;;1.30;0.70;;;21.30;74.50;;;;;;5066646;28;20108;-77
2022/08/31 08:48:31;;;;;;;2.15;0.80;;;21.30;74.50;;;;;;5046970;28;20029;-77
2022/08/31 08:51:12;;;;;;;1.35;0.80;;;21.30;74.40;;;;;;5035605;28;20055;-77
2022/08/31 08:53:40;;;;;;;;;;;21.30;74.50;;;;;;5054386;28;20039;-77
2022/08/31 08:56:06;;;;;;;2.83;0.90;;;21.30;74.50;;;;;;5054435;28;19913;-76
2022/08/31 08:58:34;;;;;;;1.92;0.80;;;21.30;74.50;;;;;;5037025;28;20552;-77
2022/08/31 09:01:01;;;;;;;1.38;0.75;;;21.30;74.50;;;;;;5035111;28;20510;-78
2022/08/31 09:04:05;;;;;;;1.50;0.68;;;21.30;74.50;;;;;;5034942;28;20721;-77
2022/08/31 09:07:07;;;;;;;1.80;0.80;;;21.40;74.40;;;;;;5034350;28;20053;-77
2022/08/31 09:10:16;;;;;;;1.67;0.85;;;21.40;74.20;;;;;;5054456;28;20040;-77
2022/08/31 09:12:49;;;;;;;;;;;21.50;73.90;;;;;;5050125;28;20122;-78
2022/08/31 09:15:35;;;;;;;2.38;0.85;;;21.60;73.70;;;;;;5055386;28;20390;-79
2022/08/31 09:18:09;;;;;;;1.38;0.80;;;21.60;73.60;;;;;;5055038;28;20025;-78
2022/08/31 09:20:34;;;;;;;1.75;0.80;;;21.60;73.40;;;;;;5083993;28;20029;-79
2022/08/31 09:23:00;;;;;;;1.25;0.70;;;21.60;73.40;;;;;;5064567;28;20526;-79
2022/08/31 09:25:50;;;;;;;1.23;0.80;;;21.70;73.40;;;;;;5043776;28;20024;-79
2022/08/31 09:28:17;;;;;;;1.67;0.90;;;21.70;73.90;;;;;;5045689;28;20025;-79
2022/08/31 09:30:50;;;;;;;1.17;0.65;;;21.70;73.30;;;;;;5061332;28;20021;-78
2022/08/31 09:33:25;;;;;;;1.02;0.70;;;21.70;73.30;;;;;;5049502;28;20080;-78
2022/08/31 09:36:12;;;;;;;2.30;0.70;;;21.70;73.30;;;;;;5019962;28;20034;-78
2022/08/31 09:38:39;;;;;;;1.50;0.80;;;21.70;73.20;;;;;;5018390;28;20049;-78
2022/08/31 09:41:21;;;;;;;1.13;0.70;;;21.70;73.30;;;;;;5075128;28;20092;-78
2022/08/31 09:43:47;;;;;;;1.17;0.70;;;21.70;73.30;;;;;;5075919;28;20059;-78
2022/08/31 09:46:27;;;;;;;1.95;1.00;;;21.70;73.30;;;;;;5044419;28;20076;-79
2022/08/31 09:48:57;;;;;;;1.10;0.65;;;21.70;73.30;;;;;;5060367;28;20025;-78
2022/08/31 09:51:25;;;;;;;2.65;0.95;;;21.70;73.30;;;;;;5036806;28;20079;-77
2022/08/31 09:56:56;;;;;;;1.50;0.90;;;21.80;73.10;;;;;;5034952;28;20550;-78
2022/08/31 09:59:33;;;;;;;1.00;0.70;;;21.80;73.00;;;;;;5016549;28;20041;-78
2022/08/31 10:02:01;;;;;;;2.08;0.80;;;21.90;72.80;;;;;;5036190;28;20052;-78
2022/08/31 10:04:31;;;;;;;1.45;0.80;;;21.90;72.80;;;;;;5042198;28;20033;-79
2022/08/31 10:07:10;;;;;;;1.48;0.80;;;21.90;72.70;;;;;;5073762;28;20040;-78
2022/08/31 10:09:45;;;;;;;1.05;0.70;;;21.90;72.60;;;;;;5057251;28;20016;-78
2022/08/31 10:12:22;;;;;;;1.33;0.70;;;21.90;72.80;;;;;;5059872;28;20017;-78
2022/08/31 10:15:01;;;;;;;1.77;1.00;;;21.90;72.80;;;;;;5040879;28;20021;-78
2022/08/31 10:17:41;;;;;;;1.70;0.90;;;21.90;72.80;;;;;;5040779;28;20029;-80
2022/08/31 10:20:15;;;;;;;1.77;0.80;;;21.90;72.80;;;;;;5040314;28;20079;-77
2022/08/31 10:22:49;;;;;;;1.52;0.70;;;21.90;73.40;;;;;;5040003;28;20033;-77
2022/08/31 10:25:41;;;;;;;1.60;0.93;;;21.90;72.70;;;;;;5040305;28;20020;-79
2022/08/31 10:28:14;;;;;;;1.67;0.82;;;21.90;72.80;;;;;;5050450;28;20075;-78
2022/08/31 10:30:44;;;;;;;2.67;1.00;;;21.90;72.90;;;;;;5051837;28;20165;-78
2022/08/31 10:33:21;;;;;;;0.73;0.63;;;21.90;72.90;;;;;;5056552;28;20028;-79
2022/08/31 10:35:54;;;;;;;1.02;0.70;;;21.90;72.90;;;;;;5061266;28;20399;-77
2022/08/31 10:38:41;;;;;;;0.75;0.60;;;21.90;72.80;;;;;;5057575;28;20033;-77
2022/08/31 10:41:22;;;;;;;1.55;0.75;;;22.00;72.90;;;;;;5076096;28;20028;-78
2022/08/31 10:44:00;;;;;;;2.22;0.80;;;22.00;72.70;;;;;;5057318;28;20567;-78
2022/08/31 10:46:29;;;;;;;1.20;0.80;;;22.00;72.70;;;;;;5040933;28;20029;-77
2022/08/31 10:48:56;;;;;;;1.70;0.80;;;22.00;72.60;;;;;;5055523;28;20663;-77
2022/08/31 10:51:41;;;;;;;1.15;0.85;;;22.10;72.50;;;;;;5067569;28;20037;-76
2022/08/31 10:54:23;;;;;;;1.42;0.90;;;22.10;72.50;;;;;;5073672;28;20032;-79
2022/08/31 10:57:18;;;;;;;1.58;0.73;;;22.10;72.40;;;;;;5057765;28;20027;-79
2022/08/31 11:00:07;;;;;;;1.50;0.80;;;22.10;72.50;;;;;;5056893;28;20031;-77
2022/08/31 11:02:44;;;;;;;1.00;0.77;;;22.10;72.50;;;;;;5075369;28;20107;-78
2022/08/31 11:05:32;;;;;;;1.67;0.80;;;22.10;72.60;;;;;;5057263;28;20271;-77
2022/08/31 11:08:22;;;;;;;1.40;0.80;;;22.10;72.60;;;;;;5055700;28;20540;-78
2022/08/31 11:10:51;;;;;;;1.13;0.70;;;22.10;72.80;;;;;;5021502;28;20017;-77
2022/08/31 11:13:40;;;;;;;1.23;0.73;;;22.00;72.80;;;;;;5036367;28;20032;-78
2022/08/31 11:16:17;;;;;;;1.40;0.80;;;22.00;72.70;;;;;;5069430;28;20032;-79
2022/08/31 11:18:49;;;;;;;2.92;1.00;;;22.10;72.80;;;;;;5057228;28;20052;-84
2022/08/31 11:21:56;;;;;;;10.63;1.23;;;22.20;72.10;;;;;;5056451;28;20032;-78
2022/08/31 11:24:59;;;;;;;40.80;3.85;;;22.30;71.90;;;;;;4997475;28;20048;-78
2022/08/31 11:27:32;;;;;;;24.85;2.60;;;22.30;71.80;;;;;;5055969;28;20023;-77
2022/08/31 11:30:06;;;;;;;33.58;3.30;;;22.40;71.70;;;;;;5056377;28;20024;-78
2022/08/31 11:32:44;;;;;;;30.30;3.03;;;22.40;71.60;;;;;;5062545;28;20021;-79
2022/08/31 11:35:11;;;;;;;23.02;2.63;;;22.40;71.50;;;;;;5049085;28;20033;-80
2022/08/31 11:37:51;;;;;;;23.45;2.90;;;22.50;71.50;;;;;;5050364;28;20025;-80
2022/08/31 11:40:43;;;;;;;23.42;2.53;;;22.50;71.50;;;;;;5049964;28;20013;-79
2022/08/31 11:43:30;;;;;;;20.77;2.83;;;22.50;72.10;;;;;;5061937;28;20040;-80
2022/08/31 11:46:00;;;;;;;15.93;3.10;;;22.60;72.10;;;;;;5074472;28;20435;-80
2022/08/31 11:48:50;;;;;;;18.02;2.15;;;22.50;74.00;;;;;;5046999;28;20142;-81
2022/08/31 11:51:34;;;;;;;22.08;2.92;;;22.60;74.40;;;;;;5071549;28;20028;-79
2022/08/31 11:54:03;;;;;;;19.90;2.40;;;22.70;75.40;;;;;;5043986;28;20510;-78
2022/08/31 11:56:36;;;;;;;17.42;2.50;;;22.80;75.60;;;;;;5043080;28;20035;-78
2022/08/31 11:59:27;;;;;;;13.60;1.98;;;23.00;75.90;;;;;;5048829;28;20483;-79
2022/08/31 12:01:55;;;;;;;;;;;23.10;75.70;;;;;;5044429;28;20029;-79
2022/08/31 12:04:56;;;;;;;14.32;2.10;;;23.20;76.20;;;;;;5043432;28;19948;-79
2022/08/31 12:07:27;;;;;;;13.20;1.90;;;23.30;76.70;;;;;;5037011;28;20033;-77
2022/08/31 12:10:07;;;;;;;10.80;1.95;;;23.40;76.30;;;;;;5059720;28;20081;-77
2022/08/31 12:12:32;;;;;;;14.27;2.10;;;23.50;76.80;;;;;;5063428;28;20058;-78
2022/08/31 12:14:58;;;;;;;12.55;2.20;;;23.60;76.90;;;;;;5060390;28;20021;-78
2022/08/31 12:17:32;;;;;;;9.18;1.50;;;23.60;77.20;;;;;;5068865;28;20021;-78
2022/08/31 12:20:13;;;;;;;11.90;2.10;;;23.70;77.70;;;;;;5055131;28;20032;-78
2022/08/31 12:26:06;;;;;;;10.13;2.00;;;23.70;78.90;;;;;;5051501;28;20036;-78
2022/08/31 12:28:58;;;;;;;11.52;2.00;;;23.70;78.90;;;;;;5036096;28;20020;-78
2022/08/31 12:31:24;;;;;;;15.75;2.72;;;23.70;79.50;;;;;;5040609;28;20029;-79
2022/08/31 12:34:31;;;;;;;9.15;1.90;;;23.70;79.30;;;;;;5057364;28;20108;-79
2022/08/31 12:36:56;;;;;;;11.95;2.03;;;23.70;79.60;;;;;;5035115;28;20114;-80
2022/08/31 12:39:25;;;;;;;14.50;2.30;;;23.70;79.80;;;;;;5037390;28;20492;-78
2022/08/31 12:41:56;;;;;;;11.60;2.03;;;23.70;79.80;;;;;;5056725;28;20048;-78
2022/08/31 12:44:46;;;;;;;10.88;2.20;;;23.70;79.80;;;;;;5055103;28;20032;-78
2022/08/31 12:47:25;;;;;;;11.85;1.75;;;23.80;79.70;;;;;;5055540;28;20025;-80
2022/08/31 12:50:07;;;;;;;12.52;2.25;;;23.80;79.70;;;;;;5054773;28;20480;-80
2022/08/31 12:53:01;;;;;;;11.00;2.22;;;23.80;79.50;;;;;;5036733;28;20028;-79
2022/08/31 12:55:50;;;;;;;8.93;2.00;;;23.90;79.40;;;;;;5054118;28;20031;-78
2022/08/31 12:58:40;;;;;;;8.88;2.20;;;23.90;78.90;;;;;;5054763;28;20036;-77
2022/08/31 13:01:20;;;;;;;9.57;1.88;;;23.90;78.60;;;;;;5036348;28;20412;-78
2022/08/31 13:03:52;;;;;;;8.07;2.10;;;23.90;78.30;;;;;;5036250;28;20025;-78
2022/08/31 13:06:32;;;;;;;9.65;1.90;;;24.00;77.90;;;;;;5036416;28;20021;-78
2022/08/31 13:08:58;;;;;;;9.43;2.10;;;24.00;77.70;;;;;;5036274;28;20032;-78
2022/08/31 13:11:32;;;;;;;10.85;2.13;;;24.00;77.60;;;;;;5035477;28;20025;-78
2022/08/31 13:14:21;;;;;;;10.55;2.00;;;23.80;77.90;;;;;;5054392;28;20025;-78
2022/08/31 13:16:54;;;;;;;8.80;1.92;;;23.60;78.30;;;;;;5035608;28;20132;-77
2022/08/31 13:19:25;;;;;;;8.80;2.08;;;23.50;78.70;;;;;;5035623;28;20405;-78
2022/08/31 13:21:53;;;;;;;;;;;23.40;79.00;;;;;;5035781;28;20033;-78